createdAt,value
2019-03-11T00:01:07.118Z,8.18
2019-03-11T00:03:43.284Z,8.11
2019-03-11T00:06:18.994Z,7.98
2019-03-11T00:08:54.779Z,7.90
2019-03-11T00:11:30.643Z,7.79
2019-03-11T00:14:06.691Z,7.66
2019-03-11T00:16:42.539Z,7.44
2019-03-11T00:19:18.403Z,7.22
2019-03-11T00:21:54.262Z,6.91
2019-03-11T00:24:30.105Z,6.53
2019-03-11T00:27:05.969Z,6.20
2019-03-11T00:29:41.819Z,6.01
2019-03-11T00:32:17.663Z,5.83
2019-03-11T00:34:54.541Z,5.66
2019-03-11T00:37:30.513Z,5.37
2019-03-11T00:40:09.469Z,5.02
2019-03-11T00:42:45.385Z,4.76
2019-03-11T00:45:21.243Z,4.49
2019-03-11T00:48:02.109Z,4.28
2019-03-11T00:50:34.704Z,4.01
2019-03-11T00:53:10.542Z,3.90
2019-03-11T00:55:46.401Z,3.81
2019-03-11T00:58:22.257Z,3.69
2019-03-11T01:00:58.114Z,3.56
2019-03-11T01:03:33.853Z,3.51
2019-03-11T01:06:09.720Z,3.41
2019-03-11T01:08:45.566Z,3.37
2019-03-11T01:11:21.430Z,3.26
2019-03-11T01:13:57.266Z,3.20
2019-03-11T01:16:33.129Z,3.25
2019-03-11T01:19:11.319Z,3.21
2019-03-11T01:21:47.809Z,3.14
2019-03-11T01:24:23.869Z,3.07
2019-03-11T01:27:17.327Z,2.97
2019-03-11T01:29:53.185Z,2.94
2019-03-11T01:32:29.054Z,2.87
2019-03-11T01:35:06.244Z,2.76
2019-03-11T01:37:42.593Z,2.76
2019-03-11T01:40:19.055Z,2.76
2019-03-11T01:42:54.806Z,2.83
2019-03-11T01:45:30.672Z,2.83
2019-03-11T01:48:06.486Z,2.84
2019-03-11T01:50:42.774Z,2.82
2019-03-11T01:53:18.541Z,2.73
2019-03-11T01:55:55.624Z,2.74
2019-03-11T01:58:32.499Z,2.65
2019-03-11T02:01:08.357Z,2.69
2019-03-11T02:03:44.418Z,2.70
2019-03-11T02:06:20.257Z,2.69
2019-03-11T02:08:56.007Z,2.68
2019-03-11T02:11:31.875Z,2.72
2019-03-11T02:14:08.748Z,2.75
2019-03-11T02:16:44.503Z,2.71
2019-03-11T02:19:20.195Z,2.76
2019-03-11T02:21:56.930Z,2.79
2019-03-11T02:24:32.685Z,2.81
2019-03-11T02:27:10.788Z,2.84
2019-03-11T02:29:48.144Z,2.86
2019-03-11T02:32:24.041Z,2.97
2019-03-11T02:34:59.871Z,3.01
2019-03-11T02:37:36.240Z,3.08
2019-03-11T02:40:15.588Z,3.03
2019-03-11T02:42:51.432Z,3.10
2019-03-11T02:45:27.213Z,3.09
2019-03-11T02:48:03.980Z,3.07
2019-03-11T02:50:39.817Z,3.11
2019-03-11T02:53:15.671Z,3.15
2019-03-11T02:55:51.488Z,3.17
2019-03-11T02:58:27.366Z,3.18
2019-03-11T03:01:07.737Z,3.17
2019-03-11T03:03:47.893Z,3.26
2019-03-11T03:06:23.741Z,3.33
2019-03-11T03:09:00.640Z,3.34
2019-03-11T03:11:37.890Z,3.32
2019-03-11T03:14:13.756Z,3.35
2019-03-11T03:16:49.620Z,3.24
2019-03-11T03:19:25.524Z,3.24
2019-03-11T03:22:01.426Z,3.28
2019-03-11T03:24:37.186Z,3.28
2019-03-11T03:27:13.034Z,3.31
2019-03-11T03:29:48.774Z,3.30
2019-03-11T03:32:24.648Z,3.28
2019-03-11T03:35:00.907Z,3.32
2019-03-11T03:37:36.757Z,3.35
2019-03-11T03:40:14.405Z,3.43
2019-03-11T03:42:50.305Z,3.49
2019-03-11T03:45:34.244Z,3.51
2019-03-11T03:51:09.515Z,3.64
2019-03-11T03:53:45.377Z,3.73
2019-03-11T03:56:21.227Z,3.78
2019-03-11T03:58:58.195Z,3.76
2019-03-11T04:01:34.387Z,3.78
2019-03-11T04:04:10.224Z,3.71
2019-03-11T04:06:46.059Z,3.62
2019-03-11T04:09:21.924Z,3.59
2019-03-11T04:11:57.789Z,3.50
2019-03-11T04:14:33.635Z,3.50
2019-03-11T04:17:09.481Z,3.44
2019-03-11T04:19:45.346Z,3.42
2019-03-11T04:22:21.205Z,3.47
2019-03-11T04:24:57.055Z,3.41
2019-03-11T04:27:32.903Z,3.40
2019-03-11T04:30:20.839Z,3.42
2019-03-11T04:32:56.692Z,3.43
2019-03-11T04:35:32.555Z,3.37
2019-03-11T04:38:09.517Z,3.40
2019-03-11T04:40:45.387Z,3.39
2019-03-11T04:43:21.235Z,3.43
2019-03-11T04:45:57.088Z,3.46
2019-03-11T04:48:32.929Z,3.51
2019-03-11T04:51:08.789Z,3.56
2019-03-11T04:53:44.646Z,3.64
2019-03-11T04:56:20.395Z,3.68
2019-03-11T04:58:59.219Z,3.71
2019-03-11T05:01:34.979Z,3.71
2019-03-11T05:04:10.724Z,3.62
2019-03-11T05:06:46.587Z,3.69
2019-03-11T05:09:22.337Z,3.65
2019-03-11T05:11:58.399Z,3.62
2019-03-11T05:14:34.137Z,3.68
2019-03-11T05:17:10.002Z,3.76
2019-03-11T05:19:45.860Z,3.76
2019-03-11T05:22:21.707Z,3.80
2019-03-11T05:24:57.455Z,3.83
2019-03-11T05:27:33.318Z,3.86
2019-03-11T05:30:18.285Z,3.88
2019-03-11T05:32:54.845Z,3.92
2019-03-11T05:35:30.712Z,3.96
2019-03-11T05:38:06.520Z,3.96
2019-03-11T05:40:45.118Z,3.98
2019-03-11T05:43:21.954Z,4.01
2019-03-11T05:45:59.399Z,4.11
2019-03-11T05:48:36.907Z,4.12
2019-03-11T05:51:12.918Z,4.12
2019-03-11T05:53:52.709Z,4.14
2019-03-11T05:56:28.945Z,4.15
2019-03-11T05:59:06.882Z,4.20
2019-03-11T06:01:42.965Z,4.27
2019-03-11T06:04:19.094Z,4.33
2019-03-11T06:06:58.077Z,4.37
2019-03-11T06:09:39.897Z,4.43
2019-03-11T06:12:22.624Z,4.44
2019-03-11T06:15:05.322Z,4.45
2019-03-11T06:17:40.869Z,4.50
2019-03-11T06:20:21.595Z,4.54
2019-03-11T06:22:58.165Z,4.54
2019-03-11T06:25:33.913Z,4.60
2019-03-11T06:28:09.773Z,4.65
2019-03-11T06:30:45.523Z,4.68
2019-03-11T06:33:21.270Z,4.67
2019-03-11T06:35:57.027Z,4.63
2019-03-11T06:38:32.987Z,4.63
2019-03-11T06:41:08.740Z,4.62
2019-03-11T06:43:44.686Z,4.61
2019-03-11T06:46:20.558Z,4.63
2019-03-11T06:48:56.407Z,4.65
2019-03-11T06:51:32.246Z,4.63
2019-03-11T06:54:08.106Z,4.60
2019-03-11T06:56:43.861Z,4.67
2019-03-11T06:59:19.941Z,4.65
2019-03-11T07:01:55.690Z,4.61
2019-03-11T07:04:31.629Z,4.67
2019-03-11T07:07:07.576Z,4.72
2019-03-11T07:09:43.431Z,4.71
2019-03-11T07:12:19.283Z,4.69
2019-03-11T07:14:55.147Z,4.72
2019-03-11T07:17:30.987Z,4.77
2019-03-11T07:20:12.408Z,4.84
2019-03-11T07:22:48.232Z,4.93
2019-03-11T07:25:24.088Z,4.94
2019-03-11T07:28:00.654Z,5.05
2019-03-11T07:30:36.506Z,5.15
2019-03-11T07:33:12.559Z,5.24
2019-03-11T07:35:48.426Z,5.35
2019-03-11T07:38:25.361Z,5.38
2019-03-11T07:41:01.148Z,5.44
2019-03-11T07:43:37.004Z,5.53
2019-03-11T07:46:12.860Z,5.59
2019-03-11T07:48:50.202Z,5.64
2019-03-11T07:51:25.999Z,5.76
2019-03-11T07:54:02.903Z,5.81
2019-03-11T07:56:38.679Z,5.81
2019-03-11T07:59:14.421Z,5.82
2019-03-11T08:01:50.501Z,5.88
2019-03-11T08:04:26.374Z,5.87
2019-03-11T08:07:02.128Z,5.88
2019-03-11T08:09:38.495Z,5.93
2019-03-11T08:12:14.682Z,5.99
2019-03-11T08:14:50.645Z,6.06
2019-03-11T08:17:26.359Z,6.06
2019-03-11T08:20:05.615Z,6.00
2019-03-11T08:22:41.344Z,6.12
2019-03-11T08:25:17.348Z,6.24
2019-03-11T08:27:53.101Z,6.37
2019-03-11T08:30:28.930Z,6.45
2019-03-11T08:33:04.679Z,6.57
2019-03-11T08:35:40.734Z,6.60
2019-03-11T08:38:16.495Z,6.70
2019-03-11T08:40:52.360Z,6.82
2019-03-11T08:43:28.091Z,6.97
2019-03-11T08:46:03.951Z,7.04
2019-03-11T08:48:39.642Z,6.90
2019-03-11T08:51:15.458Z,7.01
2019-03-11T08:53:51.210Z,7.09
2019-03-11T08:56:27.055Z,7.00
2019-03-11T08:59:02.919Z,7.03
2019-03-11T09:01:38.668Z,7.02
2019-03-11T09:04:14.414Z,6.88
2019-03-11T09:06:50.169Z,6.74
2019-03-11T09:09:26.788Z,6.69
2019-03-11T09:12:02.702Z,6.75
2019-03-11T09:14:38.520Z,6.82
2019-03-11T09:17:14.315Z,6.91
2019-03-11T09:19:50.061Z,7.03
2019-03-11T09:22:25.904Z,7.19
2019-03-11T09:25:02.410Z,7.19
2019-03-11T09:27:38.656Z,7.14
2019-03-11T09:30:20.347Z,7.09
2019-03-11T09:32:56.296Z,7.14
2019-03-11T09:35:32.151Z,7.20
2019-03-11T09:38:08.003Z,7.14
2019-03-11T09:40:43.849Z,7.07
2019-03-11T09:43:19.712Z,7.06
2019-03-11T09:45:55.558Z,7.20
2019-03-11T09:48:31.625Z,7.41
2019-03-11T09:51:07.424Z,7.62
2019-03-11T09:53:43.324Z,7.86
2019-03-11T09:56:19.178Z,8.05
2019-03-11T09:58:55.549Z,8.26
2019-03-11T10:01:32.941Z,8.51
2019-03-11T10:04:08.792Z,8.33
2019-03-11T10:06:44.641Z,8.19
2019-03-11T10:09:20.498Z,8.10
2019-03-11T10:11:56.355Z,7.96
2019-03-11T10:14:32.262Z,7.87
2019-03-11T10:17:08.071Z,7.82
2019-03-11T10:19:43.917Z,7.73
2019-03-11T10:22:19.777Z,7.64
2019-03-11T10:24:55.613Z,7.66
2019-03-11T10:27:31.468Z,7.65
2019-03-11T10:30:12.453Z,7.66
2019-03-11T10:32:48.192Z,7.68
2019-03-11T10:35:31.992Z,7.64
2019-03-11T10:38:01.558Z,7.57
2019-03-11T10:40:37.403Z,7.52
2019-03-11T10:43:13.262Z,7.45
2019-03-11T10:45:49.116Z,7.53
2019-03-11T10:48:36.368Z,7.68
2019-03-11T10:51:02.950Z,7.98
2019-03-11T10:53:39.028Z,8.33
2019-03-11T10:56:14.884Z,8.38
2019-03-11T10:58:50.741Z,8.35
2019-03-11T11:01:26.477Z,8.28
2019-03-11T11:04:02.345Z,8.15
2019-03-11T11:06:39.225Z,8.33
2019-03-11T11:09:15.177Z,8.23
2019-03-11T11:11:50.930Z,8.10
2019-03-11T11:14:26.777Z,8.10
2019-03-11T11:17:02.643Z,8.08
2019-03-11T11:19:38.695Z,8.07
2019-03-11T11:22:14.550Z,8.11
2019-03-11T11:24:50.405Z,8.18
2019-03-11T11:27:26.236Z,8.16
2019-03-11T11:30:02.100Z,8.16
2019-03-11T11:32:38.158Z,8.20
2019-03-11T11:35:14.734Z,8.23
2019-03-11T11:37:50.529Z,8.31
2019-03-11T11:40:28.190Z,8.48
2019-03-11T11:43:04.139Z,8.53
2019-03-11T11:45:39.993Z,8.66
2019-03-11T11:48:15.753Z,8.58
2019-03-11T11:50:51.699Z,8.37
2019-03-11T11:53:27.568Z,8.38
2019-03-11T11:56:03.415Z,8.43
2019-03-11T11:58:40.906Z,8.52
2019-03-11T12:01:16.970Z,8.47
2019-03-11T12:03:52.809Z,8.55
2019-03-11T12:06:28.669Z,8.56
2019-03-11T12:09:05.964Z,8.56
2019-03-11T12:11:43.367Z,8.59
2019-03-11T12:14:19.213Z,8.57
2019-03-11T12:16:55.262Z,8.63
2019-03-11T12:19:31.114Z,8.70
2019-03-11T12:22:06.961Z,8.74
2019-03-11T12:24:42.727Z,8.60
2019-03-11T12:27:18.569Z,8.48
2019-03-11T12:29:54.431Z,8.46
2019-03-11T12:32:30.287Z,8.44
2019-03-11T12:35:07.396Z,8.57
2019-03-11T12:37:43.329Z,8.77
2019-03-11T12:40:19.286Z,8.90
2019-03-11T12:42:55.735Z,9.06
2019-03-11T12:45:31.797Z,9.21
2019-03-11T12:48:08.794Z,9.35
2019-03-11T12:50:44.638Z,9.44
2019-03-11T12:53:20.389Z,9.35
2019-03-11T12:55:56.243Z,9.13
2019-03-11T12:58:40.954Z,9.13
2019-03-11T13:01:09.589Z,9.17
2019-03-11T13:03:45.448Z,9.21
2019-03-11T13:06:21.319Z,9.25
2019-03-11T13:09:00.380Z,9.15
2019-03-11T13:11:40.067Z,8.98
2019-03-11T13:14:15.932Z,8.98
2019-03-11T13:16:51.781Z,8.91
2019-03-11T13:19:27.630Z,8.84
2019-03-11T13:22:04.004Z,8.66
2019-03-11T13:24:39.857Z,8.61
2019-03-11T13:27:15.702Z,8.52
2019-03-11T13:29:51.566Z,8.41
2019-03-11T13:32:27.410Z,8.36
2019-03-11T13:35:03.284Z,8.31
2019-03-11T13:37:39.122Z,8.27
2019-03-11T13:40:16.173Z,8.18
2019-03-11T13:42:52.065Z,8.05
2019-03-11T13:45:27.919Z,7.89
2019-03-11T13:48:03.762Z,7.75
2019-03-11T13:50:39.624Z,7.64
2019-03-11T13:53:15.478Z,7.56
2019-03-11T13:55:51.335Z,6.90
2019-03-11T13:58:27.190Z,5.76
2019-03-11T14:01:02.930Z,4.46
2019-03-11T14:03:39.073Z,3.74
2019-03-11T14:06:14.944Z,3.17
2019-03-11T14:08:50.810Z,2.81
2019-03-11T14:11:26.759Z,2.54
2019-03-11T14:14:02.508Z,2.26
2019-03-11T14:16:38.672Z,2.06
2019-03-11T14:19:14.533Z,1.98
2019-03-11T14:21:51.355Z,1.86
2019-03-11T14:24:27.156Z,1.72
2019-03-11T14:27:03.022Z,1.74
2019-03-11T14:29:38.872Z,1.72
2019-03-11T14:32:14.762Z,1.98
2019-03-11T14:34:50.881Z,2.08
2019-03-11T14:37:26.739Z,2.12
2019-03-11T14:40:02.581Z,2.24
2019-03-11T14:42:38.333Z,2.32
2019-03-11T14:45:18.811Z,2.47
2019-03-11T14:47:54.667Z,2.62
2019-03-11T14:50:31.532Z,2.84
2019-03-11T14:53:07.504Z,2.88
2019-03-11T14:55:43.341Z,2.87
2019-03-11T14:58:29.071Z,2.89
2019-03-11T15:00:56.796Z,3.03
2019-03-11T15:03:32.642Z,3.05
2019-03-11T15:06:08.558Z,3.03
2019-03-11T15:08:44.355Z,3.08
2019-03-11T15:11:20.599Z,3.07
2019-03-11T15:13:57.603Z,3.17
2019-03-11T15:16:33.457Z,3.30
2019-03-11T15:19:09.306Z,3.44
2019-03-11T15:21:45.161Z,3.58
2019-03-11T15:24:21.025Z,3.69
2019-03-11T15:26:56.863Z,3.76
2019-03-11T15:29:32.721Z,3.83
2019-03-11T15:32:08.550Z,3.87
2019-03-11T15:34:44.431Z,3.84
2019-03-11T15:37:21.406Z,3.79
2019-03-11T15:39:57.269Z,3.68
2019-03-11T15:42:33.117Z,3.61
2019-03-11T15:45:14.503Z,3.50
2019-03-11T15:47:50.863Z,3.41
2019-03-11T15:50:34.487Z,3.35
2019-03-11T15:53:10.372Z,3.33
2019-03-11T15:55:46.105Z,3.27
2019-03-11T15:58:23.099Z,3.27
2019-03-11T16:00:58.848Z,3.33
2019-03-11T16:03:36.594Z,3.41
2019-03-11T16:06:12.197Z,3.50
2019-03-11T16:08:48.360Z,3.58
2019-03-11T16:11:24.209Z,3.57
2019-03-11T16:14:00.160Z,3.47
2019-03-11T16:16:36.030Z,3.45
2019-03-11T16:19:11.871Z,3.42
2019-03-11T16:21:47.725Z,3.39
2019-03-11T16:24:23.578Z,3.39
2019-03-11T16:26:59.406Z,3.36
2019-03-11T16:29:35.274Z,3.36
2019-03-11T16:32:12.163Z,3.30
2019-03-11T16:34:48.219Z,3.27
2019-03-11T16:37:24.087Z,3.20
2019-03-11T16:40:00.043Z,3.16
2019-03-11T16:42:35.895Z,3.12
2019-03-11T16:45:19.120Z,3.06
2019-03-11T16:47:55.993Z,3.01
2019-03-11T16:50:31.849Z,2.95
2019-03-11T16:53:07.707Z,2.91
2019-03-11T16:55:47.949Z,2.90
2019-03-11T16:58:23.808Z,2.85
2019-03-11T17:01:01.316Z,2.91
2019-03-11T17:03:38.071Z,2.86
2019-03-11T17:06:13.930Z,2.86
2019-03-11T17:08:49.779Z,2.83
2019-03-11T17:11:25.640Z,2.85
2019-03-11T17:14:01.382Z,2.90
2019-03-11T17:16:37.118Z,2.87
2019-03-11T17:19:12.994Z,2.88
2019-03-11T17:21:48.743Z,2.85
2019-03-11T17:24:24.498Z,2.84
2019-03-11T17:27:00.462Z,2.83
2019-03-11T17:29:36.296Z,2.78
2019-03-11T17:32:13.036Z,2.77
2019-03-11T17:34:48.855Z,2.75
2019-03-11T17:37:24.803Z,2.74
2019-03-11T17:40:00.627Z,2.72
2019-03-11T17:42:36.711Z,2.70
2019-03-11T17:45:13.780Z,2.67
2019-03-11T17:47:49.754Z,2.65
2019-03-11T17:50:26.076Z,2.65
2019-03-11T17:53:02.042Z,2.58
2019-03-11T17:55:38.014Z,2.57
2019-03-11T17:58:14.090Z,2.53
2019-03-11T18:00:55.473Z,2.53
2019-03-11T18:03:28.652Z,2.55
2019-03-11T18:06:11.490Z,2.51
2019-03-11T18:08:42.213Z,2.46
2019-03-11T18:11:17.955Z,2.45
2019-03-11T18:13:53.823Z,2.49
2019-03-11T18:16:29.558Z,2.46
2019-03-11T18:19:05.728Z,2.45
2019-03-11T18:21:41.472Z,2.52
2019-03-11T18:24:17.543Z,2.55
2019-03-11T18:26:53.398Z,2.54
2019-03-11T18:29:29.674Z,2.54
2019-03-11T18:32:05.409Z,2.56
2019-03-11T18:34:41.278Z,2.53
2019-03-11T18:37:17.033Z,2.43
2019-03-11T18:39:52.996Z,2.34
2019-03-11T18:42:28.856Z,2.34
2019-03-11T18:45:06.616Z,2.34
2019-03-11T18:47:42.401Z,2.37
2019-03-11T18:50:23.213Z,2.43
2019-03-11T18:52:59.107Z,2.46
2019-03-11T18:55:35.069Z,2.48
2019-03-11T18:58:11.155Z,2.50
2019-03-11T19:00:47.069Z,2.47
2019-03-11T19:03:22.831Z,2.49
2019-03-11T19:05:58.677Z,2.51
2019-03-11T19:08:34.762Z,2.54
2019-03-11T19:11:10.610Z,2.62
2019-03-11T19:13:46.488Z,2.65
2019-03-11T19:16:22.403Z,2.70
2019-03-11T19:18:58.165Z,2.73
2019-03-11T19:21:34.075Z,2.77
2019-03-11T19:24:10.072Z,2.73
2019-03-11T19:26:46.290Z,2.80
2019-03-11T19:29:22.283Z,2.81
2019-03-11T19:31:59.124Z,2.87
2019-03-11T19:34:34.934Z,2.90
2019-03-11T19:37:10.771Z,2.90
2019-03-11T19:39:46.560Z,2.89
2019-03-11T19:42:23.875Z,2.87
2019-03-11T19:44:59.697Z,2.87
2019-03-11T19:47:35.514Z,2.84
2019-03-11T19:50:13.517Z,2.77
2019-03-11T19:52:58.378Z,2.77
2019-03-11T19:55:26.978Z,2.78
2019-03-11T19:58:02.852Z,2.72
2019-03-11T20:00:39.694Z,2.63
2019-03-11T20:03:27.893Z,2.66
2019-03-11T20:06:02.047Z,2.65
2019-03-11T20:08:38.041Z,2.64
2019-03-11T20:11:14.103Z,2.63
2019-03-11T20:13:51.245Z,2.64
2019-03-11T20:16:27.066Z,2.67
2019-03-11T20:19:02.965Z,2.65
2019-03-11T20:21:38.794Z,2.65
2019-03-11T20:24:14.663Z,2.64
2019-03-11T20:26:50.557Z,2.54
2019-03-11T20:29:26.477Z,2.51
2019-03-11T20:32:02.363Z,2.52
2019-03-11T20:34:38.408Z,2.49
2019-03-11T20:37:14.163Z,2.43
2019-03-11T20:39:49.996Z,2.39
2019-03-11T20:42:25.776Z,2.36
2019-03-11T20:45:01.733Z,2.37
2019-03-11T20:47:37.843Z,2.36
2019-03-11T20:50:15.287Z,2.35
2019-03-11T20:52:51.169Z,2.33
2019-03-11T20:55:26.961Z,2.29
2019-03-11T20:58:03.203Z,2.32
2019-03-11T21:00:39.072Z,2.33
2019-03-11T21:03:15.068Z,2.26
2019-03-11T21:05:53.594Z,2.22
2019-03-11T21:08:29.431Z,2.19
2019-03-11T21:11:05.338Z,2.16
2019-03-11T21:13:41.228Z,2.12
2019-03-11T21:16:17.089Z,2.11
2019-03-11T21:18:52.987Z,2.07
2019-03-11T21:21:28.899Z,2.04
2019-03-11T21:24:04.754Z,2.01
2019-03-11T21:26:40.645Z,1.99
2019-03-11T21:29:16.611Z,2.07
2019-03-11T21:31:52.546Z,2.11
2019-03-11T21:34:28.392Z,2.13
2019-03-11T21:37:04.246Z,2.11
2019-03-11T21:39:40.087Z,2.11
2019-03-11T21:42:15.934Z,2.15
2019-03-11T21:44:51.951Z,2.13
2019-03-11T21:47:27.789Z,2.14
2019-03-11T21:50:04.605Z,2.18
2019-03-11T21:52:40.368Z,2.12
2019-03-11T21:55:16.842Z,2.12
2019-03-11T21:57:52.790Z,2.14
2019-03-11T22:00:34.319Z,2.14
2019-03-11T22:03:06.548Z,2.15
2019-03-11T22:05:42.407Z,2.13
2019-03-11T22:08:18.250Z,2.21
2019-03-11T22:10:54.042Z,2.19
2019-03-11T22:13:31.141Z,2.15
2019-03-11T22:16:07.051Z,2.16
2019-03-11T22:18:42.897Z,2.13
2019-03-11T22:21:19.881Z,2.11
2019-03-11T22:23:55.657Z,2.13
2019-03-11T22:26:31.493Z,2.11
2019-03-11T22:29:07.339Z,2.29
2019-03-11T22:31:43.293Z,2.34
2019-03-11T22:34:19.151Z,2.40
2019-03-11T22:36:56.116Z,2.32
2019-03-11T22:39:32.061Z,2.30
2019-03-11T22:42:07.948Z,2.28
2019-03-11T22:44:43.795Z,2.21
2019-03-11T22:47:19.645Z,2.21
2019-03-11T22:49:55.510Z,2.25
2019-03-11T22:52:31.364Z,2.22
2019-03-11T22:55:11.067Z,2.24
2019-03-11T22:57:46.848Z,2.26
2019-03-11T23:00:35.914Z,2.25
2019-03-11T23:03:13.194Z,2.30
2019-03-11T23:05:57.641Z,2.31
2019-03-11T23:08:26.661Z,2.38
2019-03-11T23:11:02.498Z,2.35
2019-03-11T23:13:38.459Z,2.35
2019-03-11T23:16:14.313Z,2.42
2019-03-11T23:18:50.180Z,2.31
2019-03-11T23:21:26.028Z,2.40
2019-03-11T23:24:01.909Z,2.45
2019-03-11T23:26:37.728Z,2.44
2019-03-11T23:29:13.475Z,2.54
2019-03-11T23:31:49.343Z,2.54
2019-03-11T23:34:25.198Z,2.54
2019-03-11T23:37:01.053Z,2.51
2019-03-11T23:39:36.894Z,2.53
2019-03-11T23:42:12.759Z,2.51
2019-03-11T23:44:48.492Z,2.49
2019-03-11T23:47:24.359Z,2.48
2019-03-11T23:50:00.424Z,2.43
2019-03-11T23:52:36.263Z,2.44
2019-03-11T23:55:12.852Z,2.44
2019-03-11T23:57:48.705Z,2.44
